createdAt,value
2024-01-17T09:49:37.476Z,22.70
2024-01-17T09:52:11.194Z,22.20
2024-01-17T09:54:42.613Z,22.50
2024-01-17T09:57:14.888Z,23.10
2024-01-17T09:59:50.253Z,23.00
2024-01-17T10:02:18.465Z,23.00
2024-01-17T10:04:47.005Z,23.00
2024-01-17T10:07:13.993Z,23.20
2024-01-17T10:09:40.948Z,22.30
2024-01-17T10:12:08.815Z,22.30
2024-01-17T10:14:35.840Z,22.10
2024-01-17T10:17:02.784Z,22.00
2024-01-17T10:19:29.909Z,22.00
2024-01-17T10:21:57.025Z,21.80
2024-01-17T10:24:24.211Z,21.60
2024-01-17T10:26:52.315Z,21.10
2024-01-17T10:29:19.297Z,20.90
2024-01-17T10:31:46.161Z,21.10
2024-01-17T10:34:13.533Z,21.90
2024-01-17T10:36:43.401Z,21.40
2024-01-17T10:39:10.393Z,21.20
2024-01-17T10:41:52.462Z,21.20
2024-01-17T10:44:20.077Z,21.30
2024-01-17T10:46:51.458Z,21.40
2024-01-17T10:49:19.286Z,21.00
2024-01-17T10:51:58.837Z,20.80
2024-01-17T10:54:28.159Z,20.30
2024-01-17T10:56:56.559Z,20.10
2024-01-17T10:59:23.690Z,20.40
2024-01-17T11:01:51.942Z,19.90
2024-01-17T11:04:21.514Z,20.00
2024-01-17T11:06:50.766Z,20.20
2024-01-17T11:09:18.616Z,20.20
2024-01-17T11:11:47.082Z,20.20
2024-01-17T11:14:16.131Z,20.40
2024-01-17T11:16:45.447Z,20.30
2024-01-17T11:19:13.083Z,20.20
2024-01-17T11:21:40.869Z,20.30
2024-01-17T11:24:34.195Z,20.20
2024-01-17T11:27:06.884Z,20.50
2024-01-17T11:29:47.624Z,21.20
2024-01-17T11:32:31.973Z,21.50
2024-01-17T11:34:58.937Z,22.10
2024-01-17T11:37:29.873Z,22.90
2024-01-17T11:39:57.907Z,22.00
2024-01-17T11:42:25.416Z,21.80
2024-01-17T11:45:04.905Z,21.90
2024-01-17T11:47:40.240Z,22.10
2024-01-17T11:50:08.676Z,22.10
2024-01-17T11:52:36.844Z,22.50
2024-01-17T11:55:03.954Z,22.40
2024-01-17T11:57:36.748Z,22.30
2024-01-17T12:00:14.255Z,22.40
2024-01-17T12:02:45.498Z,22.10
2024-01-17T12:05:13.496Z,22.70
2024-01-17T12:07:42.223Z,23.20
2024-01-17T12:10:10.445Z,23.20
2024-01-17T12:12:38.449Z,22.80
2024-01-17T12:15:06.366Z,23.10
2024-01-17T12:17:35.224Z,22.60
2024-01-17T12:20:02.738Z,22.30
2024-01-17T12:22:30.007Z,22.20
2024-01-17T12:24:57.091Z,22.50
2024-01-17T12:27:24.138Z,21.90
2024-01-17T12:29:51.106Z,21.50
2024-01-17T12:32:18.206Z,21.20
2024-01-17T12:34:45.723Z,20.80
2024-01-17T12:37:12.715Z,21.10
2024-01-17T12:39:39.636Z,21.00
2024-01-17T12:42:06.654Z,20.60
2024-01-17T12:44:34.347Z,21.10
2024-01-17T12:47:02.008Z,21.60
2024-01-17T12:49:29.015Z,21.20
2024-01-17T12:51:56.455Z,20.80
2024-01-17T12:54:23.997Z,21.00
2024-01-17T12:56:51.232Z,21.00
2024-01-17T12:59:18.322Z,21.10
2024-01-17T13:01:45.534Z,20.80
2024-01-17T13:04:12.581Z,20.90
2024-01-17T13:06:50.906Z,21.30
2024-01-17T13:09:23.373Z,21.60
2024-01-17T13:11:51.473Z,21.40
2024-01-17T13:14:25.923Z,21.50
2024-01-17T13:16:53.720Z,21.50
2024-01-17T13:19:21.211Z,21.80
2024-01-17T13:21:49.450Z,21.80
2024-01-17T13:24:17.237Z,22.10
2024-01-17T13:26:44.750Z,22.30
2024-01-17T13:29:11.765Z,22.40
2024-01-17T13:31:38.796Z,22.60
2024-01-17T13:34:05.868Z,22.60
2024-01-17T13:36:36.030Z,22.80
2024-01-17T13:39:03.001Z,22.90
2024-01-17T13:41:29.891Z,22.60
2024-01-17T13:43:56.817Z,23.00
2024-01-17T13:46:23.967Z,23.00
2024-01-17T13:48:52.167Z,23.50
2024-01-17T13:51:19.702Z,23.60
2024-01-17T13:53:46.676Z,24.10
2024-01-17T13:56:15.023Z,24.40
2024-01-17T13:58:41.922Z,24.00
2024-01-17T14:01:08.907Z,23.90
2024-01-17T14:03:36.079Z,24.00
2024-01-17T14:06:03.472Z,24.10
2024-01-17T14:08:30.600Z,24.00
2024-01-17T14:10:57.521Z,23.80
2024-01-17T14:13:25.496Z,24.30
2024-01-17T14:15:52.542Z,24.80
2024-01-17T14:18:19.786Z,24.90
2024-01-17T14:20:46.841Z,24.60
2024-01-17T14:23:13.755Z,24.50
2024-01-17T14:25:40.654Z,24.80
2024-01-17T14:28:07.625Z,24.90
2024-01-17T14:30:34.984Z,25.00
2024-01-17T14:33:05.320Z,24.90
2024-01-17T14:35:36.769Z,24.80
2024-01-17T14:38:05.874Z,24.50
2024-01-17T14:40:32.876Z,23.90
2024-01-17T14:42:59.796Z,23.70
2024-01-17T14:45:26.908Z,24.20
2024-01-17T14:47:54.084Z,24.50
2024-01-17T14:50:21.166Z,24.30
2024-01-17T14:52:48.096Z,24.30
2024-01-17T14:55:15.232Z,24.50
2024-01-17T14:57:42.383Z,24.40
2024-01-17T15:00:12.152Z,24.30
2024-01-17T15:02:39.166Z,24.20
2024-01-17T15:05:08.889Z,24.60
2024-01-17T15:07:36.900Z,24.80
2024-01-17T15:10:04.107Z,24.80
2024-01-17T15:12:31.054Z,24.80
2024-01-17T15:14:58.139Z,24.90
2024-01-17T15:17:25.086Z,25.40
2024-01-17T15:19:52.149Z,24.30
2024-01-17T15:22:19.090Z,24.10
2024-01-17T15:24:45.967Z,24.00
2024-01-17T15:27:12.952Z,23.80
2024-01-17T15:29:39.872Z,23.80
2024-01-17T15:32:07.097Z,23.60
2024-01-17T15:34:34.111Z,23.50
2024-01-17T15:37:01.071Z,23.40
2024-01-17T15:39:28.098Z,23.50
2024-01-17T15:41:56.607Z,23.30
2024-01-17T15:44:24.445Z,23.40
2024-01-17T15:46:51.743Z,23.30
2024-01-17T15:49:18.804Z,23.30
2024-01-17T15:51:46.009Z,23.20
2024-01-17T15:54:12.997Z,23.30
2024-01-17T15:56:40.100Z,23.30
2024-01-17T15:59:07.085Z,23.60
2024-01-17T16:01:34.240Z,23.80
2024-01-17T16:04:01.179Z,23.60
2024-01-17T16:06:28.279Z,23.60
2024-01-17T16:08:55.285Z,23.50
2024-01-17T16:11:22.262Z,23.50
2024-01-17T16:13:49.193Z,23.50
2024-01-17T16:16:16.137Z,23.60
2024-01-17T16:18:44.187Z,23.50
2024-01-17T16:21:14.654Z,23.60
2024-01-17T16:23:45.373Z,23.70
2024-01-17T16:26:13.481Z,24.10
2024-01-17T16:28:40.466Z,24.30
2024-01-17T16:31:08.519Z,24.20
2024-01-17T16:33:38.806Z,24.30
2024-01-17T16:36:06.532Z,24.20
2024-01-17T16:38:33.595Z,24.10
2024-01-17T16:41:00.528Z,24.00
2024-01-17T16:43:27.514Z,24.00
2024-01-17T16:45:54.531Z,23.90
2024-01-17T16:48:21.633Z,23.70
2024-01-17T16:50:48.716Z,23.90
2024-01-17T16:53:15.750Z,24.00
2024-01-17T16:55:42.945Z,24.60
2024-01-17T16:58:10.113Z,24.80
2024-01-17T17:00:40.041Z,24.80
2024-01-17T17:03:07.058Z,25.20
2024-01-17T17:05:34.145Z,25.10
2024-01-17T17:08:01.074Z,25.10
2024-01-17T17:10:28.104Z,25.30
2024-01-17T17:12:55.175Z,25.50
2024-01-17T17:15:22.225Z,25.60
2024-01-17T17:17:49.369Z,25.70
2024-01-17T17:20:16.489Z,26.40
2024-01-17T17:22:43.360Z,26.60
2024-01-17T17:25:10.340Z,27.10
2024-01-17T17:27:37.251Z,27.20
2024-01-17T17:30:04.743Z,27.30
2024-01-17T17:32:31.871Z,27.50
2024-01-17T17:34:58.818Z,26.90
2024-01-17T17:37:25.694Z,26.70
2024-01-17T17:39:52.583Z,26.90
2024-01-17T17:42:19.588Z,27.00
2024-01-17T17:44:46.682Z,26.90
2024-01-17T17:47:13.615Z,27.20
2024-01-17T17:49:40.599Z,27.30
2024-01-17T17:52:07.582Z,27.00
2024-01-17T17:54:34.513Z,27.00
2024-01-17T17:57:01.749Z,27.10
2024-01-17T17:59:28.735Z,27.10
2024-01-17T18:01:55.620Z,26.80
2024-01-17T18:04:22.635Z,26.60
2024-01-17T18:06:52.613Z,26.50
2024-01-17T18:09:19.944Z,26.30
2024-01-17T18:11:47.003Z,25.90
2024-01-17T18:14:13.966Z,26.00
2024-01-17T18:16:40.851Z,25.70
2024-01-17T18:19:07.927Z,25.80
2024-01-17T18:21:34.822Z,25.70
2024-01-17T18:24:02.863Z,25.60
2024-01-17T18:26:29.805Z,26.00
2024-01-17T18:28:56.785Z,26.30
2024-01-17T18:31:23.702Z,26.40
2024-01-17T18:33:50.614Z,26.40
2024-01-17T18:36:17.589Z,26.70
2024-01-17T18:38:44.738Z,26.70
2024-01-17T18:41:11.655Z,26.70
2024-01-17T18:43:38.561Z,26.90
2024-01-17T18:46:05.562Z,26.90
2024-01-17T18:48:32.722Z,27.00
2024-01-17T18:51:00.174Z,26.90
2024-01-17T18:53:27.245Z,26.70
2024-01-17T18:55:54.200Z,26.70
2024-01-17T18:58:21.276Z,27.00
2024-01-17T19:00:48.376Z,27.30
2024-01-17T19:03:15.573Z,27.00
2024-01-17T19:05:42.660Z,26.80
2024-01-17T19:08:09.649Z,26.90
2024-01-17T19:10:36.816Z,27.00
2024-01-17T19:13:03.862Z,27.00
2024-01-17T19:15:31.109Z,26.90
2024-01-17T19:17:58.246Z,26.70
2024-01-17T19:20:25.294Z,26.70
2024-01-17T19:22:52.217Z,27.10
2024-01-17T19:25:19.942Z,26.60
2024-01-17T19:27:47.551Z,26.40
2024-01-17T19:30:16.932Z,26.10
2024-01-17T19:32:44.860Z,26.10
2024-01-17T19:35:11.937Z,26.20
2024-01-17T19:37:42.084Z,26.00
2024-01-17T19:40:09.845Z,26.10
2024-01-17T19:42:36.839Z,26.00
2024-01-17T19:45:04.421Z,26.10
2024-01-17T19:47:31.668Z,25.80
2024-01-17T19:49:58.875Z,25.60
2024-01-17T19:52:26.273Z,25.40
2024-01-17T19:54:53.234Z,25.30
2024-01-17T19:57:20.403Z,25.30
2024-01-17T19:59:47.866Z,25.20
2024-01-17T20:02:15.640Z,25.30
2024-01-17T20:04:42.752Z,25.90
2024-01-17T20:07:09.897Z,25.90
2024-01-17T20:09:36.957Z,26.00
2024-01-17T20:12:04.375Z,26.30
2024-01-17T20:14:31.388Z,26.50
2024-01-17T20:16:58.406Z,27.00
2024-01-17T20:19:27.594Z,27.00
2024-01-17T20:21:56.166Z,26.80
2024-01-17T20:24:23.136Z,27.40
2024-01-17T20:26:50.101Z,26.80
2024-01-17T20:29:17.007Z,26.80
2024-01-17T20:31:43.940Z,26.90
2024-01-17T20:34:10.989Z,26.80
2024-01-17T20:36:37.993Z,26.80
2024-01-17T20:39:04.938Z,26.80
2024-01-17T20:41:31.912Z,26.80
2024-01-17T20:43:59.015Z,26.80
2024-01-17T20:46:26.058Z,26.80
2024-01-17T20:48:53.098Z,26.90
2024-01-17T20:51:24.732Z,26.90
2024-01-17T20:53:52.743Z,26.90
2024-01-17T20:56:19.825Z,26.80
2024-01-17T20:58:46.768Z,26.80
2024-01-17T21:01:13.699Z,26.70
2024-01-17T21:03:40.903Z,26.70
2024-01-17T21:06:07.996Z,26.80
2024-01-17T21:08:34.948Z,26.80
2024-01-17T21:11:01.904Z,26.80
2024-01-17T21:13:28.882Z,26.80
2024-01-17T21:15:55.874Z,26.80
2024-01-17T21:18:22.902Z,26.70
2024-01-17T21:20:49.892Z,27.30
2024-01-17T21:23:17.309Z,26.70
2024-01-17T21:25:44.408Z,27.20
2024-01-17T21:28:11.487Z,26.70
2024-01-17T21:30:38.443Z,26.70
2024-01-17T21:33:05.895Z,26.80
2024-01-17T21:35:32.875Z,26.70
2024-01-17T21:37:59.729Z,26.70
2024-01-17T21:40:26.687Z,26.70
2024-01-17T21:42:53.600Z,26.70
2024-01-17T21:45:20.649Z,26.70
2024-01-17T21:47:47.990Z,26.70
2024-01-17T21:50:15.176Z,26.60
2024-01-17T21:52:42.076Z,26.60
2024-01-17T21:55:12.606Z,26.60
2024-01-17T21:57:39.957Z,26.50
2024-01-17T22:00:07.560Z,26.60
2024-01-17T22:02:34.572Z,26.60
2024-01-17T22:05:01.559Z,26.60
2024-01-17T22:07:28.636Z,27.10
2024-01-17T22:09:58.203Z,26.50
2024-01-17T22:12:25.652Z,26.50
2024-01-17T22:14:52.708Z,26.60
2024-01-17T22:17:19.642Z,26.50
2024-01-17T22:19:46.654Z,27.10
2024-01-17T22:22:13.614Z,26.60
2024-01-17T22:24:40.590Z,26.60
2024-01-17T22:27:07.528Z,26.60
2024-01-17T22:29:34.466Z,26.60
2024-01-17T22:32:01.412Z,26.60
2024-01-17T22:34:28.712Z,26.60
2024-01-17T22:36:55.807Z,26.60
2024-01-17T22:39:22.880Z,26.70
2024-01-17T22:41:49.909Z,27.10
2024-01-17T22:44:16.812Z,26.70
2024-01-17T22:46:43.876Z,26.70
2024-01-17T22:49:10.975Z,26.70
2024-01-17T22:51:39.637Z,26.70
2024-01-17T22:54:06.623Z,26.70
2024-01-17T22:56:33.603Z,26.70
2024-01-17T22:59:00.572Z,26.70
2024-01-17T23:01:27.640Z,26.80
2024-01-17T23:03:54.653Z,26.70
2024-01-17T23:06:21.831Z,26.70
2024-01-17T23:08:51.709Z,26.70
2024-01-17T23:11:24.361Z,26.70
2024-01-17T23:13:53.624Z,26.80
2024-01-17T23:16:20.758Z,26.80
2024-01-17T23:18:47.911Z,26.80
2024-01-17T23:21:15.161Z,26.70
2024-01-17T23:23:42.094Z,26.80
2024-01-17T23:26:09.337Z,26.80
2024-01-17T23:28:39.384Z,26.90
2024-01-17T23:31:07.331Z,26.80
2024-01-17T23:33:34.836Z,26.80
2024-01-17T23:36:01.979Z,26.80
2024-01-17T23:38:28.989Z,26.80
2024-01-17T23:40:55.891Z,26.80
2024-01-17T23:43:22.798Z,26.80
2024-01-17T23:45:49.815Z,26.80
2024-01-17T23:48:18.337Z,26.90
2024-01-17T23:50:45.536Z,26.70
2024-01-17T23:53:21.660Z,26.80
2024-01-17T23:55:48.656Z,26.80
2024-01-17T23:58:15.546Z,26.80
